スキポール空港(アムステルダム)の過去48時間の天気

スキポール空港(アムステルダム) (Amsterdam Airport Schiphol)

現在時刻: 9/22 19:34 CEST (9/22 17:34 UTC) 以下の時間は現地時間です。

過去48時間のMETAR気象情報
時間 風向 風速(m/s) 視程 気温(℃) 湿度(%) 気圧(hPa) 天気現象
22 19:25 北西 2 10km以上 18 60 1007
22 18:55 西北西 3 10km以上 18 64 1007
22 18:25 西 4 10km以上 20 53 1007
22 17:55 西 3 10km以上 20 56 1007
22 17:25 西 4 10km以上 21 53 1008
22 16:55 西 4 10km以上 22 50 1008
22 16:25 西 4 10km以上 22 50 1008
22 15:55 西 2 10km以上 22 46 1009
22 15:25 西北西 3 10km以上 22 46 1009
22 14:55 西 3 10km以上 22 46 1009
22 14:25 西南西 2 10km以上 22 46 1009
22 13:55 西南西 2 10km以上 22 50 1010
22 13:25 西 2 10km以上 21 49 1010
22 12:55 西南西 3 10km以上 21 53 1010
22 12:25 不定 2 10km以上 20 53 1011
22 11:55 西 2 10km以上 19 64 1011
22 11:25 北西 3 10km以上 19 64 1011
22 10:55 北西 2 9000m 18 77 1011 部分霧 もや
22 10:25 不定 1 9000m 17 83 1011 部分霧 もや
22 09:55 不定 1 7000m 14 94 1011 部分霧 もや
22 09:25 不定 1 6000m 13 94 1011 部分霧 もや
22 08:55 不定 1 4000m 11 100 1011 部分霧 散在した霧 もや
22 08:25 静穏 0 250m 9 100 1011 散在した霧 もや
22 07:55 不定 1 150m 8 100 1011 散在した霧
22 07:25 不定 1 150m 9 100 1011
22 06:55 西北西 1 150m 10 100 1011
22 06:25 西北西 2 150m 9 100 1012 散在した霧 もや
22 05:55 静穏 0 5000m 8 100 1012 散在した霧 もや
22 05:25 北西 1 1500m 9 100 1012 散在した霧
22 04:55 北西 1 7000m 9 100 1012 地霧
22 04:25 北西 1 7000m 9 100 1012 地霧
22 03:55 北西 1 7000m 9 100 1013 地霧
22 03:25 北西 1 7000m 9 100 1013 地霧
22 02:55 北西 1 8000m 11 100 1013 地霧
22 02:25 北西 2 8000m 11 94 1013 地霧
22 01:55 西北西 1 9000m 11 94 1014 地霧
22 01:25 西北西 1 9000m 11 100 1014 地霧
22 00:55 北西 2 9000m 11 94 1014 地霧
22 00:25 北西 2 10km以上 11 94 1014 地霧
21 23:55 北西 1 10km以上 12 94 1014 地霧
21 23:25 静穏 0 10km以上 12 94 1014
21 22:55 北西 1 10km以上 13 88 1014
21 22:25 不定 1 10km以上 13 88 1014
21 21:55 北北西 1 10km以上 14 88 1014
21 21:25 北東 1 10km以上 15 82 1014
21 20:55 北東 1 10km以上 15 82 1014
21 20:25 北東 1 10km以上 16 77 1014
21 19:55 東北東 2 10km以上 17 72 1014
21 19:25 2 10km以上 18 64 1014
21 18:55 北東 2 10km以上 19 60 1014
21 18:25 北北東 3 10km以上 21 53 1015
21 17:55 北北東 4 10km以上 22 50 1014
21 17:25 北北東 3 10km以上 22 50 1015
21 16:55 北東 2 10km以上 23 47 1015
21 16:25 不定 2 10km以上 24 38 1015
21 15:55 不定 1 10km以上 24 34 1015
21 15:25 東北東 2 10km以上 24 38 1015
21 14:55 東北東 2 10km以上 23 36 1016
21 14:25 不定 1 10km以上 23 41 1016
21 13:55 東北東 2 10km以上 23 41 1016
21 13:25 東北東 2 10km以上 22 46 1016
21 12:55 東北東 2 10km以上 22 46 1016
21 12:25 東北東 2 10km以上 21 49 1016
21 11:55 不定 1 10km以上 20 60 1017
21 11:25 東北東 2 10km以上 19 60 1017
21 10:55 不定 1 10km以上 18 68 1017
21 10:25 東北東 2 10km以上 17 72 1017
21 09:55 東北東 3 10km以上 16 72 1017
21 09:25 東北東 2 10km以上 15 82 1017
21 08:55 北東 2 10km以上 14 88 1017
21 08:25 北北東 2 10km以上 11 94 1017
21 07:55 不定 1 10km以上 11 94 1017
21 07:25 不定 1 10km以上 11 87 1017 地霧
21 06:55 不定 1 10km以上 10 94 1017 地霧
21 06:25 北北東 2 9000m 11 87 1017 地霧
21 05:25 北東 2 9000m 12 94 1017 地霧
21 04:55 北東 3 9000m 13 88 1017
21 04:25 北東 4 8000m 13 94 1017
21 03:55 北東 5 8000m 13 94 1017
21 03:25 北東 4 8000m 13 94 1018
21 02:55 北北東 3 9000m 13 94 1018
21 02:25 北北東 3 10km以上 13 88 1018
21 01:55 北東 3 10km以上 13 88 1018
21 01:25 北北東 4 10km以上 14 82 1018
21 00:55 北北東 4 10km以上 14 88 1018
21 00:25 北東 3 10km以上 14 88 1018
20 23:55 北東 3 10km以上 14 88 1018
20 23:25 北東 3 10km以上 14 88 1018
20 22:55 北東 4 10km以上 15 82 1018
20 22:25 東北東 4 10km以上 15 77 1018
20 21:55 北東 5 10km以上 16 77 1018
20 21:25 北東 5 10km以上 16 77 1018
20 20:55 北東 6 10km以上 17 72 1018
20 20:25 北東 6 10km以上 17 68 1018
20 19:55 北東 6 10km以上 18 60 1018
EHAM 221725Z 31003KT CAVOK 18/10 Q1007 NOSIG
EHAM 221655Z 29005KT 250V310 CAVOK 18/11 Q1007 NOSIG
EHAM 221625Z 28007KT 250V310 CAVOK 20/10 Q1007 NOSIG
EHAM 221555Z 28006KT CAVOK 20/11 Q1007 NOSIG
EHAM 221525Z 28007KT 240V300 CAVOK 21/11 Q1008 NOSIG
EHAM 221455Z 27007KT 240V320 CAVOK 22/11 Q1008 NOSIG
EHAM 221425Z 27007KT 190V320 CAVOK 22/11 Q1008 NOSIG
EHAM 221355Z 27004KT 160V320 CAVOK 22/10 Q1009 NOSIG
EHAM 221325Z 29006KT 250V320 CAVOK 22/10 Q1009 NOSIG
EHAM 221255Z 28005KT 230V320 CAVOK 22/10 Q1009 NOSIG
EHAM 221225Z 24004KT 190V310 CAVOK 22/10 Q1009 NOSIG
EHAM 221155Z 25004KT 180V320 CAVOK 22/11 Q1010 NOSIG
EHAM 221125Z 26004KT 190V320 CAVOK 21/10 Q1010 NOSIG
EHAM 221055Z 24005KT 210V290 CAVOK 21/11 Q1010 NOSIG
EHAM 221025Z VRB03KT CAVOK 20/10 Q1011 NOSIG
EHAM 220955Z 28003KT 190V340 CAVOK 19/12 Q1011 NOSIG
EHAM 220925Z 31005KT 270V010 CAVOK 19/12 Q1011 NOSIG
EHAM 220855Z 32003KT 280V020 9000 1000NW R18C/P2000N R27/P2000N R18R/1100U R06/P2000N PRFG BR NSC 18/14 Q1011 BECMG CAVOK
EHAM 220825Z VRB01KT 9000 0150NW R18C/P2000N R27/P2000N R18R/0200N R06/1900N PRFG BR NSC 17/14 Q1011 BECMG CAVOK
EHAM 220755Z VRB01KT 7000 0150NW R18C/0800N R27/P2000N R18R/0125N R06/2000N PRFG BR NSC 14/13 Q1011 BECMG CAVOK
EHAM 220725Z VRB01KT 6000 0150NW R18C/1000D R27/P2000N R18R/0175N R06/0300D PRFG BR NSC 13/12 Q1011 BECMG CAVOK
EHAM 220655Z VRB01KT 4000 0150NW R18C/0400D R27/1600U R18R/0150N R06/0150N PRFG BCFG BR NSC 11/11 Q1011 BECMG CAVOK
EHAM 220625Z 00000KT 0250 R18C/0250N R27/0400N R18R/0225N R06/0325U BCFG BR NSC 09/09 Q1011 BECMG 5000
EHAM 220555Z VRB01KT 0150 R18C/0200N R27/0225N R18R/0200N R06/0100N BCFG NSC 08/08 Q1011 BECMG 3000
EHAM 220525Z VRB01KT 0150 R18C/0200N R27/0200N R18R/0150N R06/0100N FG NSC 09/09 Q1011 TEMPO BKN001
EHAM 220455Z 30002KT 0150 R18C/0200N R27/0150N R18R/0150N R06/0100N FG BKN000 10/10 Q1011 NOSIG
EHAM 220425Z 30003KT 0150 R18C/0175N R27/0150N R18R/0125N R06/1700N BCFG BR SCT000 09/09 Q1012 BECMG OVC000
EHAM 220355Z 00000KT 5000 0300NW R18C/1700D R27/P2000N R18R/0225N R06/P2000N BCFG BR SCT001 08/08 Q1012 TEMPO 0500 OVC000
EHAM 220325Z 32002KT 1500 0300NW R18C/0225D R27/1300U R18R/0325D R06/1900N BCFG FEW001 09/09 Q1012 TEMPO 0500 FG
EHAM 220255Z 31002KT 7000 MIFG NSC 09/09 Q1012 BECMG 1500 BCFG
EHAM 220225Z 31002KT 7000 MIFG NSC 09/09 Q1012 BECMG 1500 BCFG
EHAM 220155Z 31002KT 7000 MIFG NSC 09/09 Q1013 BECMG 1500 BCFG
EHAM 220125Z 32002KT 7000 MIFG NSC 09/09 Q1013 BECMG 1500 BCFG
EHAM 220055Z 32002KT 8000 MIFG NSC 11/11 Q1013 BECMG 1500 BCFG
EHAM 220025Z 32003KT 8000 MIFG NSC 11/10 Q1013 BECMG 1500 BCFG
EHAM 212355Z 30001KT 9000 MIFG NSC 11/10 Q1014 BECMG 1500 BCFG
EHAM 212325Z 30002KT 9000 MIFG NSC 11/11 Q1014 BECMG 4000 BR
EHAM 212255Z 31004KT 9000 MIFG NSC 11/10 Q1014 BECMG 4000 BR
EHAM 212225Z 32003KT 9999 MIFG NSC 11/10 Q1014 BECMG 4000 BR
EHAM 212155Z 32001KT 9999 MIFG NSC 12/11 Q1014 BECMG 4000 BR
EHAM 212125Z 00000KT CAVOK 12/11 Q1014 NOSIG
EHAM 212055Z 32002KT CAVOK 13/11 Q1014 NOSIG
EHAM 212025Z VRB01KT CAVOK 13/11 Q1014 NOSIG
EHAM 211955Z 34001KT CAVOK 14/12 Q1014 NOSIG
EHAM 211925Z 05001KT CAVOK 15/12 Q1014 NOSIG
EHAM 211855Z 05001KT CAVOK 15/12 Q1014 NOSIG
EHAM 211825Z 05002KT CAVOK 16/12 Q1014 NOSIG
EHAM 211755Z 06003KT CAVOK 17/12 Q1014 NOSIG
EHAM 211725Z 09004KT CAVOK 18/11 Q1014 NOSIG
EHAM 211655Z 05004KT CAVOK 19/11 Q1014 NOSIG
EHAM 211625Z 03005KT 360V070 CAVOK 21/11 Q1015 NOSIG
EHAM 211555Z 02007KT 340V050 CAVOK 22/11 Q1014 NOSIG
EHAM 211525Z 03006KT CAVOK 22/11 Q1015 NOSIG
EHAM 211455Z 04003KT 320V100 CAVOK 23/11 Q1015 NOSIG
EHAM 211425Z VRB03KT CAVOK 24/09 Q1015 NOSIG
EHAM 211355Z VRB02KT CAVOK 24/07 Q1015 NOSIG
EHAM 211325Z 07003KT 360V130 CAVOK 24/09 Q1015 NOSIG
EHAM 211255Z 07003KT 020V130 CAVOK 23/07 Q1016 NOSIG
EHAM 211225Z VRB02KT CAVOK 23/09 Q1016 NOSIG
EHAM 211155Z 06003KT 010V140 CAVOK 23/09 Q1016 NOSIG
EHAM 211125Z 06003KT 010V120 CAVOK 22/10 Q1016 NOSIG
EHAM 211055Z 07003KT 030V120 CAVOK 22/10 Q1016 NOSIG
EHAM 211025Z 07003KT 030V130 CAVOK 21/10 Q1016 NOSIG
EHAM 210955Z VRB02KT CAVOK 20/12 Q1017 NOSIG
EHAM 210925Z 06003KT 350V110 CAVOK 19/11 Q1017 NOSIG
EHAM 210855Z VRB02KT CAVOK 18/12 Q1017 NOSIG
EHAM 210825Z 07003KT 020V110 CAVOK 17/12 Q1017 NOSIG
EHAM 210755Z 07005KT CAVOK 16/11 Q1017 NOSIG
EHAM 210725Z 06004KT CAVOK 15/12 Q1017 NOSIG
EHAM 210655Z 04003KT 360V080 CAVOK 14/12 Q1017 NOSIG
EHAM 210625Z 02003KT 350V050 CAVOK 11/10 Q1017 NOSIG
EHAM 210555Z VRB01KT CAVOK 11/10 Q1017 NOSIG
EHAM 210525Z VRB02KT 9999 MIFG NSC 11/09 Q1017 NOSIG
EHAM 210455Z VRB02KT 9999 MIFG NSC 10/09 Q1017 NOSIG
EHAM 210425Z 02004KT 9000 MIFG NSC 11/09 Q1017 NOSIG
EHAM 210325Z 04003KT 360V080 9000 MIFG NSC 12/11 Q1017 TEMPO 7000
EHAM 210255Z 04006KT 9000 NSC 13/11 Q1017 TEMPO 7000
EHAM 210225Z 05008KT 8000 NSC 13/12 Q1017 TEMPO 7000
EHAM 210155Z 05009KT 8000 NSC 13/12 Q1017 TEMPO 7000
EHAM 210125Z 04007KT 8000 NSC 13/12 Q1018 TEMPO 7000
EHAM 210055Z 03006KT 9000 NSC 13/12 Q1018 NOSIG
EHAM 210025Z 03006KT 360V060 CAVOK 13/11 Q1018 NOSIG
EHAM 202355Z 04006KT CAVOK 13/11 Q1018 NOSIG
EHAM 202325Z 02007KT CAVOK 14/11 Q1018 NOSIG
EHAM 202255Z 03007KT CAVOK 14/12 Q1018 NOSIG
EHAM 202225Z 05006KT CAVOK 14/12 Q1018 NOSIG
EHAM 202155Z 05006KT 020V080 CAVOK 14/12 Q1018 NOSIG
EHAM 202125Z 05006KT 020V080 CAVOK 14/12 Q1018 NOSIG
EHAM 202055Z 05008KT CAVOK 15/12 Q1018 NOSIG
EHAM 202025Z 06008KT CAVOK 15/11 Q1018 NOSIG
EHAM 201955Z 05010KT CAVOK 16/12 Q1018 NOSIG
EHAM 201925Z 04010KT 010V080 CAVOK 16/12 Q1018 NOSIG
EHAM 201855Z 05011KT CAVOK 17/12 Q1018 NOSIG
EHAM 201825Z 04011KT CAVOK 17/11 Q1018 NOSIG
EHAM 201755Z 04012KT CAVOK 18/10 Q1018 NOSIG